createdAt,value
2018-11-11T00:00:15.079Z,1.70
2018-11-11T00:01:15.089Z,1.60
2018-11-11T00:02:15.090Z,1.70
2018-11-11T00:03:15.086Z,1.50
2018-11-11T00:04:15.074Z,1.60
2018-11-11T00:05:15.092Z,1.60
2018-11-11T00:06:15.086Z,1.60
2018-11-11T00:07:15.275Z,1.50
2018-11-11T00:08:15.285Z,1.50
2018-11-11T00:09:15.072Z,1.50
2018-11-11T00:10:15.073Z,1.40
2018-11-11T00:11:15.067Z,1.80
2018-11-11T00:12:15.271Z,1.40
2018-11-11T00:13:15.078Z,1.40
2018-11-11T00:14:15.066Z,1.40
2018-11-11T00:15:15.066Z,1.40
2018-11-11T00:16:15.062Z,1.40
2018-11-11T00:17:15.075Z,1.40
2018-11-11T00:18:15.074Z,1.30
2018-11-11T00:19:15.060Z,1.40
2018-11-11T00:20:15.062Z,1.20
2018-11-11T00:21:15.073Z,1.40
2018-11-11T00:22:15.060Z,1.20
2018-11-11T00:23:15.083Z,1.20
2018-11-11T00:24:15.059Z,1.20
2018-11-11T00:25:15.059Z,1.10
2018-11-11T00:26:15.280Z,1.20
2018-11-11T00:27:15.058Z,1.20
2018-11-11T00:28:15.254Z,1.10
2018-11-11T00:29:15.050Z,1.40
2018-11-11T00:30:15.064Z,1.30
2018-11-11T00:31:15.063Z,1.40
2018-11-11T00:32:15.060Z,1.30
2018-11-11T00:33:15.047Z,1.10
2018-11-11T00:34:15.059Z,1.30
2018-11-11T00:35:15.062Z,1.20
2018-11-11T00:36:15.045Z,1.30
2018-11-11T00:37:15.057Z,1.20
2018-11-11T00:38:15.045Z,1.20
2018-11-11T00:39:15.045Z,1.10
2018-11-11T00:40:15.042Z,1.20
2018-11-11T00:41:15.053Z,1.20
2018-11-11T00:42:15.038Z,1.10
2018-11-11T00:43:15.053Z,1.30
2018-11-11T00:44:15.249Z,1.20
2018-11-11T00:45:15.049Z,1.20
2018-11-11T00:46:15.048Z,1.20
2018-11-11T00:47:15.047Z,1.10
2018-11-11T00:48:15.059Z,1.10
2018-11-11T00:49:15.060Z,1.20
2018-11-11T00:50:15.104Z,1.20
2018-11-11T00:51:15.045Z,1.10
2018-11-11T00:52:15.029Z,1.20
2018-11-11T00:53:15.249Z,1.20
2018-11-11T00:54:15.054Z,1.20
2018-11-11T00:55:15.029Z,1.30
2018-11-11T00:56:15.039Z,1.20
2018-11-11T00:57:15.025Z,1.10
2018-11-11T00:58:15.036Z,1.20
2018-11-11T00:59:15.036Z,1.10
2018-11-11T01:00:15.023Z,1.10
2018-11-11T01:01:15.025Z,1.20
2018-11-11T01:02:15.032Z,1.30
2018-11-11T01:03:15.036Z,1.10
2018-11-11T01:04:15.028Z,1.20
2018-11-11T01:05:15.043Z,1.10
2018-11-11T01:06:15.026Z,1.00
2018-11-11T01:07:15.218Z,1.10
2018-11-11T01:08:15.035Z,1.20
2018-11-11T01:09:15.020Z,1.10
2018-11-11T01:10:15.034Z,1.00
2018-11-11T01:11:15.039Z,1.10
2018-11-11T01:12:15.081Z,1.10
2018-11-11T01:13:15.008Z,1.00
2018-11-11T01:14:15.010Z,1.10
2018-11-11T01:15:15.010Z,1.20
2018-11-11T01:16:15.026Z,1.20
2018-11-11T01:17:15.002Z,1.20
2018-11-11T01:18:15.000Z,1.20
2018-11-11T01:19:14.998Z,1.00
2018-11-11T01:20:15.001Z,1.20
2018-11-11T01:21:14.995Z,1.20
2018-11-11T01:22:15.005Z,1.20
2018-11-11T01:23:15.211Z,1.10
2018-11-11T01:24:14.994Z,1.10
2018-11-11T01:25:15.010Z,1.00
2018-11-11T01:26:15.002Z,1.20
2018-11-11T01:27:14.992Z,1.10
2018-11-11T01:28:14.989Z,1.30
2018-11-11T01:29:15.203Z,1.10
2018-11-11T01:30:14.988Z,1.20
2018-11-11T01:31:14.995Z,1.20
2018-11-11T01:32:15.188Z,1.10
2018-11-11T01:33:15.012Z,1.10
2018-11-11T01:34:15.182Z,1.20
2018-11-11T01:35:14.986Z,1.20
2018-11-11T01:36:14.995Z,1.30
2018-11-11T01:37:14.992Z,1.20
2018-11-11T01:38:14.987Z,1.10
2018-11-11T01:39:14.987Z,1.30
2018-11-11T01:40:14.997Z,1.30
2018-11-11T01:41:14.973Z,1.30
2018-11-11T01:42:14.970Z,1.30
2018-11-11T01:43:15.174Z,1.10
2018-11-11T01:44:14.976Z,1.40
2018-11-11T01:45:15.002Z,1.10
2018-11-11T01:46:14.982Z,1.30
2018-11-11T01:47:14.978Z,1.00
2018-11-11T01:48:14.969Z,1.30
2018-11-11T01:49:14.964Z,1.20
2018-11-11T01:50:14.960Z,1.10
2018-11-11T01:51:14.960Z,1.20
2018-11-11T01:52:14.969Z,1.40
2018-11-11T01:53:14.958Z,1.40
2018-11-11T01:54:15.164Z,1.20
2018-11-11T01:55:14.967Z,1.20
2018-11-11T01:56:15.158Z,1.30
2018-11-11T01:57:14.976Z,1.10
2018-11-11T01:58:14.968Z,1.10
2018-11-11T01:59:14.952Z,1.20
2018-11-11T02:00:14.968Z,1.10
2018-11-11T02:01:14.956Z,1.20
2018-11-11T02:02:15.158Z,1.30
2018-11-11T02:03:14.971Z,1.30
2018-11-11T02:04:14.956Z,1.30
2018-11-11T02:05:14.949Z,1.40
2018-11-11T02:06:14.945Z,1.20
2018-11-11T02:07:14.955Z,1.40
2018-11-11T02:08:14.939Z,1.30
2018-11-11T02:09:14.940Z,1.40
2018-11-11T02:10:14.943Z,1.50
2018-11-11T02:11:14.936Z,1.40
2018-11-11T02:12:14.953Z,1.50
2018-11-11T02:13:15.141Z,1.30
2018-11-11T02:14:14.963Z,1.30
2018-11-11T02:15:15.148Z,1.50
2018-11-11T02:16:14.933Z,1.30
2018-11-11T02:17:14.957Z,1.50
2018-11-11T02:18:14.949Z,1.40
2018-11-11T02:19:14.926Z,1.40
2018-11-11T02:20:15.134Z,1.40
2018-11-11T02:21:15.055Z,1.30
2018-11-11T02:22:14.925Z,1.30
2018-11-11T02:23:14.946Z,1.50
2018-11-11T02:24:14.922Z,1.40
2018-11-11T02:25:14.947Z,1.30
2018-11-11T02:26:14.920Z,1.20
2018-11-11T02:27:15.133Z,1.40
2018-11-11T02:28:15.123Z,1.10
2018-11-11T02:29:14.916Z,1.30
2018-11-11T02:30:14.926Z,1.40
2018-11-11T02:31:15.136Z,1.30
2018-11-11T02:32:14.923Z,1.20
2018-11-11T02:33:14.927Z,1.10
2018-11-11T02:34:14.931Z,1.20
2018-11-11T02:35:15.125Z,1.20
2018-11-11T02:36:14.910Z,1.10
2018-11-11T02:37:15.000Z,1.20
2018-11-11T02:38:15.126Z,1.20
2018-11-11T02:39:14.926Z,1.30
2018-11-11T02:40:14.916Z,1.30
2018-11-11T02:41:15.102Z,1.20
2018-11-11T02:42:14.903Z,1.20
2018-11-11T02:43:14.915Z,1.20
2018-11-11T02:44:14.921Z,1.20
2018-11-11T02:45:14.906Z,1.30
2018-11-11T02:46:14.910Z,1.00
2018-11-11T02:47:14.929Z,1.20
2018-11-11T02:48:14.893Z,1.30
2018-11-11T02:49:14.905Z,1.10
2018-11-11T02:50:14.905Z,1.10
2018-11-11T02:51:14.908Z,1.20
2018-11-11T02:52:14.899Z,1.40
2018-11-11T02:53:15.090Z,1.20
2018-11-11T02:54:15.103Z,1.10
2018-11-11T02:55:14.897Z,1.10
2018-11-11T02:56:15.095Z,1.00
2018-11-11T02:57:14.915Z,1.00
2018-11-11T02:58:14.882Z,1.20
2018-11-11T02:59:15.080Z,1.10
2018-11-11T03:00:14.899Z,1.10
2018-11-11T03:01:14.886Z,1.10
2018-11-11T03:02:14.894Z,1.10
2018-11-11T03:03:14.882Z,1.20
2018-11-11T03:04:14.897Z,1.20
2018-11-11T03:05:14.878Z,1.10
2018-11-11T03:06:14.882Z,1.10
2018-11-11T03:07:14.893Z,1.20
2018-11-11T03:08:15.094Z,1.40
2018-11-11T03:09:14.897Z,1.20
2018-11-11T03:10:15.082Z,1.30
2018-11-11T03:11:14.891Z,1.30
2018-11-11T03:12:15.075Z,1.10
2018-11-11T03:13:15.068Z,1.30
2018-11-11T03:14:14.861Z,1.30
2018-11-11T03:15:15.083Z,1.20
2018-11-11T03:16:15.076Z,1.10
2018-11-11T03:17:14.869Z,1.30
2018-11-11T03:18:14.856Z,1.10
2018-11-11T03:19:14.855Z,1.00
2018-11-11T03:20:14.871Z,1.20
2018-11-11T03:21:14.861Z,1.20
2018-11-11T03:22:14.852Z,1.10
2018-11-11T03:23:14.860Z,1.20
2018-11-11T03:24:15.061Z,1.30
2018-11-11T03:25:14.847Z,1.40
2018-11-11T03:26:14.858Z,1.20
2018-11-11T03:27:14.847Z,1.20
2018-11-11T03:28:14.856Z,1.20
2018-11-11T03:29:14.866Z,1.20
2018-11-11T03:30:14.870Z,1.20
2018-11-11T03:31:14.844Z,1.10
2018-11-11T03:32:15.071Z,1.40
2018-11-11T03:33:14.854Z,1.10
2018-11-11T03:34:14.840Z,1.20
2018-11-11T03:35:14.857Z,1.20
2018-11-11T03:36:14.838Z,1.30
2018-11-11T03:37:14.830Z,1.10
2018-11-11T03:38:14.865Z,1.40
2018-11-11T03:39:14.831Z,1.30
2018-11-11T03:40:15.036Z,1.30
2018-11-11T03:41:15.031Z,1.40
2018-11-11T03:42:14.828Z,1.10
2018-11-11T03:43:15.037Z,1.20
2018-11-11T03:44:14.826Z,1.10
2018-11-11T03:45:14.851Z,1.20
2018-11-11T03:46:14.822Z,1.10
2018-11-11T03:47:14.820Z,1.10
2018-11-11T03:48:14.821Z,1.10
2018-11-11T03:49:15.020Z,1.10
2018-11-11T03:50:14.837Z,1.20
2018-11-11T03:51:14.817Z,1.00
2018-11-11T03:52:14.825Z,1.00
2018-11-11T03:53:14.819Z,1.30
2018-11-11T03:54:14.836Z,1.30
2018-11-11T03:55:14.823Z,1.20
2018-11-11T03:56:14.809Z,1.10
2018-11-11T03:57:14.808Z,1.20
2018-11-11T03:58:14.811Z,1.00
2018-11-11T03:59:14.806Z,1.10
2018-11-11T04:00:14.807Z,1.20
2018-11-11T04:01:14.818Z,1.20
2018-11-11T04:02:14.801Z,1.10
2018-11-11T04:03:14.811Z,1.10
2018-11-11T04:04:14.810Z,1.00
2018-11-11T04:05:14.798Z,1.20
2018-11-11T04:06:14.826Z,1.20
2018-11-11T04:07:14.801Z,1.10
2018-11-11T04:08:14.795Z,1.10
2018-11-11T04:09:14.795Z,1.20
2018-11-11T04:10:14.858Z,1.10
2018-11-11T04:11:14.996Z,1.20
2018-11-11T04:12:14.838Z,1.20
2018-11-11T04:13:15.005Z,1.30
2018-11-11T04:14:15.017Z,1.20
2018-11-11T04:15:14.794Z,1.10
2018-11-11T04:16:14.783Z,1.30
2018-11-11T04:17:14.781Z,1.30
2018-11-11T04:18:14.804Z,1.00
2018-11-11T04:19:14.790Z,1.40
2018-11-11T04:20:14.779Z,1.30
2018-11-11T04:21:14.830Z,1.60
2018-11-11T04:22:14.805Z,1.10
2018-11-11T04:23:14.780Z,1.30
2018-11-11T04:24:14.795Z,1.10
2018-11-11T04:25:14.775Z,1.00
2018-11-11T04:26:14.783Z,1.20
2018-11-11T04:27:14.982Z,1.20
2018-11-11T04:28:14.770Z,1.00
2018-11-11T04:29:14.968Z,1.20
2018-11-11T04:30:14.764Z,1.30
2018-11-11T04:31:14.765Z,1.20
2018-11-11T04:32:14.763Z,1.10
2018-11-11T04:33:14.774Z,1.10
2018-11-11T04:34:14.963Z,1.00
2018-11-11T04:35:14.767Z,1.10
2018-11-11T04:36:14.977Z,1.10
2018-11-11T04:37:14.784Z,1.00
2018-11-11T04:38:14.774Z,1.00
2018-11-11T04:39:14.817Z,1.10
2018-11-11T04:40:14.772Z,1.00
2018-11-11T04:41:14.755Z,1.20
2018-11-11T04:42:14.761Z,1.20
2018-11-11T04:43:14.761Z,1.10
2018-11-11T04:44:14.749Z,1.10
2018-11-11T04:45:14.748Z,1.30
2018-11-11T04:46:14.775Z,0.90
2018-11-11T04:47:14.950Z,1.10
2018-11-11T04:48:14.961Z,1.10
2018-11-11T04:49:14.752Z,1.20
2018-11-11T04:50:14.743Z,1.00
2018-11-11T04:51:14.964Z,1.40
2018-11-11T04:52:14.941Z,1.00
2018-11-11T04:53:14.737Z,1.10
2018-11-11T04:54:14.739Z,1.00
2018-11-11T04:55:14.957Z,0.90
2018-11-11T04:56:14.736Z,1.10
2018-11-11T04:57:14.752Z,1.10
2018-11-11T04:58:14.739Z,1.10
2018-11-11T04:59:14.729Z,1.10
2018-11-11T05:00:14.726Z,1.10
2018-11-11T05:01:15.017Z,1.20
2018-11-11T05:02:14.727Z,1.00
2018-11-11T05:03:14.927Z,1.00
2018-11-11T05:04:14.721Z,0.90
2018-11-11T05:05:14.732Z,1.10
2018-11-11T05:06:14.736Z,1.10
2018-11-11T05:07:14.721Z,1.20
2018-11-11T05:08:14.715Z,1.20
2018-11-11T05:09:14.726Z,1.00
2018-11-11T05:10:14.713Z,0.80
2018-11-11T05:11:14.722Z,1.00
2018-11-11T05:12:14.722Z,1.10
2018-11-11T05:13:14.713Z,1.00
2018-11-11T05:14:14.729Z,0.90
2018-11-11T05:15:14.709Z,1.00
2018-11-11T05:16:14.718Z,1.10
2018-11-11T05:17:14.708Z,1.10
2018-11-11T05:18:14.703Z,1.20
2018-11-11T05:19:14.915Z,1.00
2018-11-11T05:20:14.923Z,1.20
2018-11-11T05:21:14.700Z,1.00
2018-11-11T05:22:14.917Z,1.10
2018-11-11T05:23:14.922Z,1.10
2018-11-11T05:24:14.706Z,0.90
2018-11-11T05:25:14.722Z,1.00
2018-11-11T05:26:14.910Z,1.00
2018-11-11T05:27:14.692Z,0.90
2018-11-11T05:28:14.894Z,1.10
2018-11-11T05:29:14.711Z,1.20
2018-11-11T05:30:14.699Z,1.00
2018-11-11T05:31:14.701Z,1.10
2018-11-11T05:32:14.703Z,1.20
2018-11-11T05:33:14.697Z,1.00
2018-11-11T05:34:14.682Z,0.90
2018-11-11T05:35:14.681Z,1.00
2018-11-11T05:36:14.693Z,1.00
2018-11-11T05:37:14.711Z,1.00
2018-11-11T05:38:14.880Z,0.90
2018-11-11T05:39:14.894Z,1.00
2018-11-11T05:40:14.683Z,1.10
2018-11-11T05:41:14.688Z,0.90
2018-11-11T05:42:14.689Z,1.10
2018-11-11T05:43:14.687Z,1.00
2018-11-11T05:44:14.875Z,1.10
2018-11-11T05:45:14.696Z,1.10
2018-11-11T05:46:14.683Z,1.00
2018-11-11T05:47:14.667Z,1.20
2018-11-11T05:48:14.684Z,1.00
2018-11-11T05:49:14.675Z,1.10
2018-11-11T05:50:14.693Z,1.10
2018-11-11T05:51:14.662Z,1.20
2018-11-11T05:52:14.667Z,0.90
2018-11-11T05:53:14.669Z,1.20
2018-11-11T05:54:14.656Z,1.10
2018-11-11T05:55:14.655Z,1.20
2018-11-11T05:56:14.653Z,1.10
2018-11-11T05:57:14.651Z,1.00
2018-11-11T05:58:14.649Z,1.00
2018-11-11T05:59:14.673Z,1.30
2018-11-11T06:00:14.652Z,1.10
2018-11-11T06:01:14.661Z,1.00
2018-11-11T06:02:14.674Z,1.00
2018-11-11T06:03:14.665Z,1.30
2018-11-11T06:04:14.856Z,1.10
2018-11-11T06:05:14.654Z,1.00
2018-11-11T06:06:14.653Z,1.10
2018-11-11T06:07:14.651Z,1.00
2018-11-11T06:08:14.636Z,1.50
2018-11-11T06:09:14.637Z,1.20
2018-11-11T06:10:14.666Z,1.00
2018-11-11T06:11:14.649Z,1.00
2018-11-11T06:12:14.657Z,1.00
2018-11-11T06:13:14.631Z,1.00
2018-11-11T06:14:14.652Z,1.00
2018-11-11T06:15:14.629Z,0.90
2018-11-11T06:16:14.639Z,1.00
2018-11-11T06:17:14.830Z,1.30
2018-11-11T06:18:14.622Z,1.00
2018-11-11T06:19:14.625Z,1.10
2018-11-11T06:20:14.622Z,1.00
2018-11-11T06:21:14.620Z,1.00
2018-11-11T06:22:14.632Z,1.00
2018-11-11T06:23:14.616Z,1.00
2018-11-11T06:24:14.635Z,1.10
2018-11-11T06:25:14.819Z,1.00
2018-11-11T06:26:14.630Z,1.00
2018-11-11T06:27:14.877Z,1.00
2018-11-11T06:28:14.615Z,1.10
2018-11-11T06:29:14.608Z,1.30
2018-11-11T06:30:14.622Z,0.90
2018-11-11T06:31:14.606Z,1.00
2018-11-11T06:32:14.607Z,1.10
2018-11-11T06:33:14.604Z,1.10
2018-11-11T06:34:14.732Z,1.30
2018-11-11T06:35:14.603Z,1.20
2018-11-11T06:36:14.613Z,1.20
2018-11-11T06:37:14.615Z,1.10
2018-11-11T06:38:14.801Z,1.10
2018-11-11T06:39:14.618Z,1.00
2018-11-11T06:40:14.633Z,1.00
2018-11-11T06:41:14.617Z,1.10
2018-11-11T06:42:14.593Z,1.10
2018-11-11T06:43:14.600Z,1.10
2018-11-11T06:44:14.596Z,1.20
2018-11-11T06:45:14.592Z,1.10
2018-11-11T06:46:14.592Z,1.20
2018-11-11T06:47:14.596Z,1.00
2018-11-11T06:48:14.684Z,1.10
2018-11-11T06:49:14.793Z,1.00
2018-11-11T06:50:14.592Z,1.30
2018-11-11T06:51:14.786Z,1.10
2018-11-11T06:52:14.590Z,0.90
2018-11-11T06:53:14.590Z,1.20
2018-11-11T06:54:14.790Z,1.00
2018-11-11T06:55:14.576Z,1.10
2018-11-11T06:56:14.786Z,1.10
2018-11-11T06:57:14.585Z,1.40
2018-11-11T06:58:14.688Z,1.20
2018-11-11T06:59:14.579Z,1.10
2018-11-11T07:00:14.575Z,1.10
2018-11-11T07:01:14.569Z,1.10
2018-11-11T07:02:14.571Z,1.00
2018-11-11T07:03:14.578Z,1.00
2018-11-11T07:04:14.779Z,1.10
2018-11-11T07:05:14.781Z,1.10
2018-11-11T07:06:14.577Z,1.10
2018-11-11T07:07:14.562Z,1.20
2018-11-11T07:08:14.559Z,1.40
2018-11-11T07:09:14.560Z,1.00
2018-11-11T07:10:14.557Z,1.00
2018-11-11T07:11:14.579Z,1.20
2018-11-11T07:12:14.554Z,1.10
2018-11-11T07:13:14.562Z,1.30
2018-11-11T07:14:14.660Z,1.00
2018-11-11T07:15:14.561Z,0.90
2018-11-11T07:16:14.549Z,1.00
2018-11-11T07:17:14.548Z,1.00
2018-11-11T07:18:14.550Z,1.20
2018-11-11T07:19:14.760Z,1.00
2018-11-11T07:20:14.774Z,1.20
2018-11-11T07:21:14.545Z,1.00
2018-11-11T07:22:14.551Z,1.10
2018-11-11T07:23:14.549Z,1.20
2018-11-11T07:24:14.635Z,1.00
2018-11-11T07:25:14.544Z,1.00
2018-11-11T07:26:14.536Z,1.20
2018-11-11T07:27:14.537Z,1.10
2018-11-11T07:28:14.535Z,1.00
2018-11-11T07:29:14.542Z,1.10
2018-11-11T07:30:14.531Z,1.10
2018-11-11T07:31:14.551Z,1.10
2018-11-11T07:32:14.543Z,1.00
2018-11-11T07:33:14.731Z,1.30
2018-11-11T07:34:14.529Z,1.10
2018-11-11T07:35:14.541Z,1.10
2018-11-11T07:36:14.541Z,1.30
2018-11-11T07:37:14.527Z,1.20
2018-11-11T07:38:14.531Z,1.20
2018-11-11T07:39:14.534Z,1.10
2018-11-11T07:40:14.523Z,1.20
2018-11-11T07:41:14.529Z,1.30
2018-11-11T07:42:14.525Z,1.10
2018-11-11T07:43:14.516Z,1.20
2018-11-11T07:44:14.730Z,1.20
2018-11-11T07:45:14.529Z,1.10
2018-11-11T07:46:14.524Z,1.10
2018-11-11T07:47:14.514Z,1.20
2018-11-11T07:48:14.514Z,1.00
2018-11-11T07:49:14.511Z,1.00
2018-11-11T07:50:14.522Z,1.20
2018-11-11T07:51:14.510Z,1.10
2018-11-11T07:52:14.523Z,1.20
2018-11-11T07:53:14.517Z,1.10
2018-11-11T07:54:14.511Z,1.20
2018-11-11T07:55:14.541Z,1.00
2018-11-11T07:56:14.536Z,1.10
2018-11-11T07:57:14.528Z,1.00
2018-11-11T07:58:14.554Z,1.20
2018-11-11T07:59:14.511Z,1.00
2018-11-11T08:00:14.551Z,1.20
2018-11-11T08:01:14.496Z,1.00
2018-11-11T08:02:14.629Z,0.90
2018-11-11T08:03:14.505Z,1.00
2018-11-11T08:04:14.506Z,1.10
2018-11-11T08:05:14.510Z,1.00
2018-11-11T08:06:14.500Z,0.90
2018-11-11T08:07:14.501Z,1.00
2018-11-11T08:08:14.493Z,1.10
2018-11-11T08:09:14.494Z,1.10
2018-11-11T08:10:14.500Z,1.00
2018-11-11T08:11:14.580Z,1.00
2018-11-11T08:12:14.498Z,1.20
2018-11-11T08:13:14.486Z,1.00
2018-11-11T08:14:14.481Z,0.80
2018-11-11T08:15:14.499Z,1.00
2018-11-11T08:16:14.497Z,1.00
2018-11-11T08:17:14.491Z,1.20
2018-11-11T08:18:14.498Z,1.00
2018-11-11T08:19:14.489Z,1.00
2018-11-11T08:20:14.478Z,1.00
2018-11-11T08:21:14.476Z,1.10
2018-11-11T08:22:14.479Z,1.10
2018-11-11T08:23:14.478Z,1.10
2018-11-11T08:24:14.473Z,1.00
2018-11-11T08:25:14.495Z,1.00
2018-11-11T08:26:14.491Z,1.00
2018-11-11T08:27:14.483Z,0.90
2018-11-11T08:28:14.470Z,1.00
2018-11-11T08:29:14.468Z,1.10
2018-11-11T08:30:14.466Z,1.10
2018-11-11T08:31:14.485Z,0.90
2018-11-11T08:32:14.477Z,0.90
2018-11-11T08:33:14.480Z,0.90
2018-11-11T08:34:14.462Z,0.90
2018-11-11T08:35:14.465Z,0.90
2018-11-11T08:36:14.470Z,0.90
2018-11-11T08:37:14.457Z,0.80
2018-11-11T08:38:14.489Z,0.80
2018-11-11T08:39:14.457Z,0.80
2018-11-11T08:40:14.483Z,0.90
2018-11-11T08:41:14.478Z,0.80
2018-11-11T08:42:14.464Z,0.80
2018-11-11T08:43:14.462Z,0.80
2018-11-11T08:44:14.488Z,0.80
2018-11-11T08:45:14.455Z,1.00
2018-11-11T08:46:14.467Z,0.70
2018-11-11T08:47:14.477Z,0.90
2018-11-11T08:48:14.456Z,0.80
2018-11-11T08:49:14.466Z,0.80
2018-11-11T08:50:14.447Z,0.80
2018-11-11T08:51:14.441Z,0.70
2018-11-11T08:52:14.456Z,0.90
2018-11-11T08:53:14.459Z,0.80
2018-11-11T08:54:14.454Z,0.80
2018-11-11T08:55:14.446Z,0.80
2018-11-11T08:56:14.439Z,0.90
2018-11-11T08:57:14.452Z,0.90
2018-11-11T08:58:14.567Z,0.90
2018-11-11T08:59:14.436Z,0.80
2018-11-11T09:00:14.460Z,0.80
2018-11-11T09:01:14.461Z,1.00
2018-11-11T09:02:14.449Z,0.80
2018-11-11T09:03:14.433Z,0.80
2018-11-11T09:04:14.428Z,0.80
2018-11-11T09:05:14.431Z,0.90
2018-11-11T09:06:14.451Z,0.90
2018-11-11T09:07:14.442Z,0.80
2018-11-11T09:08:14.432Z,0.70
2018-11-11T09:09:14.459Z,0.80
2018-11-11T09:10:14.434Z,0.80
2018-11-11T09:11:14.439Z,0.70
2018-11-11T09:12:14.447Z,0.70
2018-11-11T09:13:14.428Z,0.80
2018-11-11T09:14:14.460Z,0.80
2018-11-11T09:15:14.454Z,0.80
2018-11-11T09:16:14.433Z,0.80
2018-11-11T09:17:14.482Z,0.70
2018-11-11T09:18:14.430Z,0.70
2018-11-11T09:19:14.457Z,0.80
2018-11-11T09:20:14.419Z,0.70
2018-11-11T09:21:14.639Z,0.60
2018-11-11T09:22:14.443Z,0.70
2018-11-11T09:23:14.451Z,0.80
2018-11-11T09:24:14.430Z,0.70
2018-11-11T09:25:14.427Z,0.80
2018-11-11T09:26:14.428Z,0.80
2018-11-11T09:27:14.414Z,0.70
2018-11-11T09:28:14.420Z,0.70
2018-11-11T09:29:14.414Z,0.70
2018-11-11T09:30:14.440Z,0.70
2018-11-11T09:31:14.438Z,0.80
2018-11-11T09:32:14.431Z,0.80
2018-11-11T09:33:14.444Z,0.70
2018-11-11T09:34:14.412Z,0.80
2018-11-11T09:35:14.487Z,0.70
2018-11-11T09:36:14.412Z,0.70
2018-11-11T09:37:14.435Z,0.70
2018-11-11T09:38:14.409Z,0.70
2018-11-11T09:39:14.517Z,0.70
2018-11-11T09:40:14.429Z,0.70
2018-11-11T09:41:14.399Z,0.80
2018-11-11T09:42:14.451Z,0.70
2018-11-11T09:43:14.404Z,0.70
2018-11-11T09:44:14.398Z,0.80
2018-11-11T09:45:14.400Z,0.70
2018-11-11T09:46:14.399Z,0.90
2018-11-11T09:47:14.404Z,0.70
2018-11-11T09:48:14.396Z,0.80
2018-11-11T09:49:14.401Z,0.70
2018-11-11T09:50:14.407Z,0.70
2018-11-11T09:51:14.609Z,0.80
2018-11-11T09:52:14.405Z,0.80
2018-11-11T09:53:14.390Z,0.80
2018-11-11T09:54:14.431Z,0.70
2018-11-11T09:55:14.408Z,0.60
2018-11-11T09:56:14.392Z,0.70
2018-11-11T09:57:14.414Z,0.70
2018-11-11T09:58:14.403Z,0.70
2018-11-11T09:59:14.387Z,0.70
2018-11-11T10:00:14.596Z,0.80
2018-11-11T10:01:14.400Z,0.80
2018-11-11T10:02:14.403Z,0.80
2018-11-11T10:03:14.607Z,0.80
2018-11-11T10:04:14.391Z,0.70
2018-11-11T10:05:14.385Z,0.80
2018-11-11T10:06:14.410Z,0.70
2018-11-11T10:07:14.459Z,0.70
2018-11-11T10:08:14.413Z,0.70
2018-11-11T10:09:14.407Z,0.80
2018-11-11T10:10:14.397Z,0.80
2018-11-11T10:11:14.394Z,0.80
2018-11-11T10:12:14.434Z,0.80
2018-11-11T10:13:14.396Z,0.80
2018-11-11T10:14:14.408Z,0.70
2018-11-11T10:15:14.396Z,0.70
2018-11-11T10:16:14.382Z,0.90
2018-11-11T10:17:14.433Z,0.80
2018-11-11T10:18:14.418Z,0.80
2018-11-11T10:19:14.582Z,0.80
2018-11-11T10:20:14.648Z,0.80
2018-11-11T10:21:14.390Z,0.70
2018-11-11T10:22:14.407Z,0.80
2018-11-11T10:23:14.376Z,0.80
2018-11-11T10:24:14.384Z,0.80
2018-11-11T10:25:14.388Z,0.70
2018-11-11T10:26:14.594Z,0.90
2018-11-11T10:27:14.406Z,0.70
2018-11-11T10:28:14.376Z,0.70
2018-11-11T10:29:14.394Z,0.70
2018-11-11T10:30:14.377Z,0.80
2018-11-11T10:31:14.390Z,0.70
2018-11-11T10:32:14.583Z,0.70
2018-11-11T10:33:14.413Z,0.80
2018-11-11T10:34:14.379Z,0.60
2018-11-11T10:35:14.375Z,0.80
2018-11-11T10:36:14.373Z,0.80
2018-11-11T10:37:14.391Z,0.80
2018-11-11T10:38:14.373Z,0.80
2018-11-11T10:39:14.437Z,1.00
2018-11-11T10:40:14.385Z,0.70
2018-11-11T10:41:14.396Z,0.70
2018-11-11T10:42:14.370Z,0.80
2018-11-11T10:43:14.373Z,0.80
2018-11-11T10:44:14.434Z,0.80
2018-11-11T10:45:14.374Z,0.70
2018-11-11T10:46:14.373Z,0.80
2018-11-11T10:47:14.380Z,0.80
2018-11-11T10:48:14.383Z,0.70
2018-11-11T10:49:14.576Z,0.80
2018-11-11T10:50:14.402Z,0.80
2018-11-11T10:51:14.586Z,0.80
2018-11-11T10:52:14.372Z,0.70
2018-11-11T10:53:14.398Z,1.00
2018-11-11T10:54:14.622Z,0.80
2018-11-11T10:55:14.369Z,0.90
2018-11-11T10:56:14.384Z,0.70
2018-11-11T10:57:14.380Z,0.70
2018-11-11T10:58:14.374Z,0.70
2018-11-11T10:59:14.369Z,0.70
2018-11-11T11:00:14.399Z,0.80
2018-11-11T11:01:14.381Z,0.70
2018-11-11T11:02:14.384Z,0.90
2018-11-11T11:03:14.379Z,0.70
2018-11-11T11:04:14.388Z,0.70
2018-11-11T11:05:14.382Z,0.90
2018-11-11T11:06:14.502Z,0.70
2018-11-11T11:07:14.369Z,0.70
2018-11-11T11:08:14.377Z,0.80
2018-11-11T11:09:14.377Z,0.90
2018-11-11T11:10:14.386Z,0.70
2018-11-11T11:11:14.379Z,0.80
2018-11-11T11:12:14.396Z,0.80
2018-11-11T11:13:14.376Z,0.80
2018-11-11T11:14:14.376Z,0.80
2018-11-11T11:15:14.366Z,0.70
2018-11-11T11:16:14.389Z,0.90
2018-11-11T11:17:14.381Z,0.80
2018-11-11T11:18:14.364Z,0.80
2018-11-11T11:19:14.368Z,0.70
2018-11-11T11:20:14.363Z,0.90
2018-11-11T11:21:14.362Z,0.80
2018-11-11T11:22:14.382Z,0.90
2018-11-11T11:23:14.384Z,0.80
2018-11-11T11:24:14.362Z,0.90
2018-11-11T11:25:14.364Z,0.90
2018-11-11T11:26:14.376Z,0.90
2018-11-11T11:27:14.452Z,1.10
2018-11-11T11:28:14.377Z,0.90
2018-11-11T11:29:14.577Z,0.90
2018-11-11T11:30:14.392Z,1.00
2018-11-11T11:31:14.440Z,0.80
2018-11-11T11:32:14.525Z,0.80
2018-11-11T11:33:14.386Z,0.80
2018-11-11T11:34:14.363Z,0.90
2018-11-11T11:35:14.380Z,0.90
2018-11-11T11:36:14.367Z,1.00
2018-11-11T11:37:14.362Z,1.00
2018-11-11T11:38:14.447Z,0.90
2018-11-11T11:39:14.359Z,0.80
2018-11-11T11:40:14.361Z,0.80
2018-11-11T11:41:14.382Z,0.90
2018-11-11T11:42:14.377Z,1.00
2018-11-11T11:43:14.371Z,0.90
2018-11-11T11:44:14.472Z,1.00
2018-11-11T11:45:14.421Z,1.00
2018-11-11T11:46:14.420Z,1.00
2018-11-11T11:47:14.409Z,1.10
2018-11-11T11:48:14.362Z,0.90
2018-11-11T11:49:14.386Z,0.90
2018-11-11T11:50:14.424Z,1.10
2018-11-11T11:51:14.358Z,0.90
2018-11-11T11:52:14.438Z,1.00
2018-11-11T11:53:14.364Z,0.90
2018-11-11T11:54:14.379Z,0.90
2018-11-11T11:55:14.371Z,0.90
2018-11-11T11:56:14.389Z,1.10
2018-11-11T11:57:14.370Z,1.00
2018-11-11T11:58:14.461Z,0.90
2018-11-11T11:59:14.358Z,1.10
2018-11-11T12:00:14.372Z,0.90
2018-11-11T12:01:14.358Z,0.90
2018-11-11T12:02:14.664Z,1.00
2018-11-11T12:03:14.357Z,1.00
2018-11-11T12:04:14.384Z,1.10
2018-11-11T12:05:14.389Z,1.20
2018-11-11T12:06:14.366Z,0.90
2018-11-11T12:07:14.358Z,1.00
2018-11-11T12:08:14.359Z,0.80
2018-11-11T12:09:14.410Z,1.30
2018-11-11T12:10:14.370Z,1.00
2018-11-11T12:11:14.359Z,1.00
2018-11-11T12:12:14.365Z,1.10
2018-11-11T12:13:14.355Z,1.10
2018-11-11T12:14:14.367Z,1.10
2018-11-11T12:15:14.367Z,1.10
2018-11-11T12:16:14.356Z,0.90
2018-11-11T12:17:14.425Z,0.80
2018-11-11T12:18:14.356Z,1.00
2018-11-11T12:19:14.371Z,1.00
2018-11-11T12:20:14.361Z,1.00
2018-11-11T12:21:14.354Z,1.00
2018-11-11T12:22:14.362Z,1.00
2018-11-11T12:23:14.387Z,1.10
2018-11-11T12:24:14.358Z,1.10
2018-11-11T12:25:14.377Z,1.10
2018-11-11T12:26:14.363Z,1.10
2018-11-11T12:27:14.356Z,1.10
2018-11-11T12:28:14.365Z,1.10
2018-11-11T12:29:14.352Z,1.00
2018-11-11T12:30:14.376Z,1.10
2018-11-11T12:31:14.363Z,1.10
2018-11-11T12:32:14.362Z,1.20
2018-11-11T12:33:14.351Z,1.10
2018-11-11T12:34:14.361Z,1.10
2018-11-11T12:35:14.354Z,1.20
2018-11-11T12:36:14.352Z,0.90
2018-11-11T12:37:14.354Z,1.30
2018-11-11T12:38:14.352Z,1.10
2018-11-11T12:39:14.490Z,1.40
2018-11-11T12:40:14.708Z,1.00
2018-11-11T12:41:14.377Z,1.10
2018-11-11T12:42:14.363Z,1.20
2018-11-11T12:43:14.376Z,1.30
2018-11-11T12:44:14.371Z,1.30
2018-11-11T12:45:14.347Z,1.10
2018-11-11T12:46:14.374Z,1.40
2018-11-11T12:47:14.368Z,1.20
2018-11-11T12:48:14.363Z,1.10
2018-11-11T12:49:14.422Z,1.10
2018-11-11T12:50:14.435Z,1.20
2018-11-11T12:51:14.347Z,1.30
2018-11-11T12:52:14.349Z,1.20
2018-11-11T12:53:14.350Z,1.10
2018-11-11T12:54:14.373Z,1.10
2018-11-11T12:55:14.384Z,1.30
2018-11-11T12:56:14.359Z,1.20
2018-11-11T12:57:14.355Z,1.10
2018-11-11T12:58:14.357Z,1.40
2018-11-11T12:59:14.557Z,1.20
2018-11-11T13:00:14.349Z,1.30
2018-11-11T13:01:14.350Z,1.20
2018-11-11T13:02:14.370Z,1.30
2018-11-11T13:03:14.349Z,1.10
2018-11-11T13:04:14.344Z,1.30
2018-11-11T13:05:14.358Z,1.20
2018-11-11T13:06:14.356Z,1.30
2018-11-11T13:07:14.348Z,1.20
2018-11-11T13:08:14.345Z,1.10
2018-11-11T13:09:14.346Z,1.40
2018-11-11T13:10:14.356Z,1.30
2018-11-11T13:11:14.390Z,1.30
2018-11-11T13:12:14.454Z,1.40
2018-11-11T13:13:14.352Z,1.20
2018-11-11T13:15:14.341Z,1.40
2018-11-11T13:16:14.343Z,1.30
2018-11-11T13:17:14.346Z,1.20
2018-11-11T13:18:14.342Z,1.20
2018-11-11T13:19:14.350Z,1.50